createdAt,value
2019-03-03T00:01:43.390Z,84.29
2019-03-03T00:04:14.734Z,84.33
2019-03-03T00:06:45.885Z,84.42
2019-03-03T00:09:17.374Z,84.28
2019-03-03T00:11:48.776Z,84.29
2019-03-03T00:14:20.518Z,84.30
2019-03-03T00:16:52.488Z,84.01
2019-03-03T00:19:24.129Z,83.90
2019-03-03T00:21:57.896Z,83.49
2019-03-03T00:24:30.684Z,83.07
2019-03-03T00:27:01.989Z,82.82
2019-03-03T00:29:33.459Z,82.77
2019-03-03T00:32:04.835Z,82.96
2019-03-03T00:34:36.172Z,83.07
2019-03-03T00:37:32.686Z,82.59
2019-03-03T00:40:15.201Z,82.86
2019-03-03T00:42:54.604Z,83.17
2019-03-03T00:45:49.339Z,83.23
2019-03-03T00:48:30.014Z,83.04
2019-03-03T00:51:27.061Z,82.71
2019-03-03T00:54:08.696Z,82.99
2019-03-03T00:57:14.508Z,82.46
2019-03-03T01:00:04.830Z,82.31
2019-03-03T01:02:44.611Z,82.26
2019-03-03T01:05:28.456Z,82.57
2019-03-03T01:08:17.315Z,82.47
2019-03-03T01:10:58.530Z,82.48
2019-03-03T01:13:37.915Z,82.40
2019-03-03T01:16:31.260Z,82.13
2019-03-03T01:19:11.033Z,82.16
2019-03-03T01:21:56.414Z,82.40
2019-03-03T01:24:53.000Z,82.22
2019-03-03T01:27:25.168Z,82.24
2019-03-03T01:29:56.816Z,82.33
2019-03-03T01:32:28.613Z,82.57
2019-03-03T01:35:00.004Z,82.71
2019-03-03T01:37:31.631Z,82.77
2019-03-03T01:40:02.976Z,82.60
2019-03-03T01:42:35.436Z,82.73
2019-03-03T01:45:09.040Z,82.47
2019-03-03T01:47:40.391Z,82.63
2019-03-03T01:50:11.849Z,82.45
2019-03-03T01:52:43.459Z,82.66
2019-03-03T01:55:14.946Z,82.75
2019-03-03T01:57:46.169Z,82.65
2019-03-03T02:00:26.504Z,82.61
2019-03-03T02:02:58.589Z,82.71
2019-03-03T02:05:29.917Z,82.95
2019-03-03T02:08:01.204Z,82.81
2019-03-03T02:10:32.444Z,83.02
2019-03-03T02:13:03.712Z,83.04
2019-03-03T02:15:35.311Z,83.19
2019-03-03T02:18:06.742Z,83.25
2019-03-03T02:20:38.128Z,82.79
2019-03-03T02:23:10.786Z,82.84
2019-03-03T02:25:42.109Z,83.05
2019-03-03T02:28:13.527Z,83.17
2019-03-03T02:30:45.001Z,83.33
2019-03-03T02:33:16.302Z,83.04
2019-03-03T02:35:48.421Z,83.16
2019-03-03T02:38:20.012Z,82.73
2019-03-03T02:40:51.349Z,82.64
2019-03-03T02:43:23.025Z,82.68
2019-03-03T02:45:54.598Z,82.63
2019-03-03T02:48:25.824Z,82.66
2019-03-03T02:50:57.185Z,82.62
2019-03-03T02:53:28.705Z,82.57
2019-03-03T02:55:59.951Z,82.54
2019-03-03T02:58:31.936Z,82.60
2019-03-03T03:01:10.021Z,82.66
2019-03-03T03:03:41.339Z,82.75
2019-03-03T03:06:37.749Z,82.87
2019-03-03T03:09:22.207Z,82.90
2019-03-03T03:12:31.135Z,82.83
2019-03-03T03:15:13.680Z,82.87
2019-03-03T03:18:06.683Z,82.88
2019-03-03T03:21:00.019Z,83.14
2019-03-03T03:23:40.237Z,83.12
2019-03-03T03:26:38.058Z,83.24
2019-03-03T03:29:27.557Z,83.46
2019-03-03T03:32:18.110Z,83.52
2019-03-03T03:35:03.764Z,83.58
2019-03-03T03:37:47.376Z,83.56
2019-03-03T03:40:39.324Z,83.83
2019-03-03T03:43:33.378Z,84.10
2019-03-03T03:46:19.005Z,84.12
2019-03-03T03:48:56.618Z,83.99
2019-03-03T03:51:47.988Z,84.07
2019-03-03T03:54:34.485Z,84.11
2019-03-03T03:57:23.795Z,84.32
2019-03-03T04:00:12.542Z,84.13
2019-03-03T04:03:03.523Z,83.86
2019-03-03T04:05:51.453Z,84.05
2019-03-03T04:08:48.173Z,84.28
2019-03-03T04:11:41.567Z,84.05
2019-03-03T04:14:18.897Z,84.00
2019-03-03T04:16:56.845Z,83.71
2019-03-03T04:19:52.753Z,83.74
2019-03-03T04:22:37.634Z,83.49
2019-03-03T04:25:22.813Z,83.51
2019-03-03T04:28:11.676Z,83.38
2019-03-03T04:30:55.910Z,83.19
2019-03-03T04:33:44.875Z,83.37
2019-03-03T04:36:37.758Z,83.40
2019-03-03T04:39:34.583Z,83.55
2019-03-03T04:42:13.923Z,83.52
2019-03-03T04:45:04.097Z,83.56
2019-03-03T04:47:52.844Z,83.66
2019-03-03T04:50:42.999Z,83.72
2019-03-03T04:53:45.539Z,84.05
2019-03-03T04:56:24.531Z,84.19
2019-03-03T04:59:13.521Z,84.25
2019-03-03T05:02:04.102Z,84.30
2019-03-03T05:05:00.399Z,84.25
2019-03-03T05:07:39.041Z,84.22
2019-03-03T05:10:20.690Z,84.38
2019-03-03T05:13:09.506Z,84.23
2019-03-03T05:15:58.331Z,83.84
2019-03-03T05:18:57.724Z,84.02
2019-03-03T05:21:28.931Z,84.31
2019-03-03T05:24:00.172Z,83.99
2019-03-03T05:26:31.330Z,83.90
2019-03-03T05:29:02.560Z,83.12
2019-03-03T05:31:34.063Z,82.44
2019-03-03T05:34:05.725Z,82.50
2019-03-03T05:36:37.003Z,82.33
2019-03-03T05:39:08.754Z,82.01
2019-03-03T05:41:40.358Z,82.38
2019-03-03T05:44:11.988Z,82.50
2019-03-03T05:46:43.535Z,82.70
2019-03-03T05:49:15.498Z,82.34
2019-03-03T05:51:46.882Z,82.49
2019-03-03T05:54:18.482Z,82.67
2019-03-03T05:56:50.198Z,82.78
2019-03-03T05:59:22.040Z,82.81
2019-03-03T06:01:53.296Z,82.93
2019-03-03T06:04:24.541Z,82.66
2019-03-03T06:06:55.833Z,82.67
2019-03-03T06:09:27.184Z,82.74
2019-03-03T06:12:03.130Z,82.45
2019-03-03T06:14:34.376Z,82.38
2019-03-03T06:17:06.037Z,82.36
2019-03-03T06:19:37.677Z,82.50
2019-03-03T06:22:08.955Z,82.59
2019-03-03T06:24:40.112Z,82.92
2019-03-03T06:27:11.438Z,83.26
2019-03-03T06:29:42.837Z,83.08
2019-03-03T06:32:14.111Z,83.12
2019-03-03T06:34:45.705Z,83.05
2019-03-03T06:37:17.174Z,82.53
2019-03-03T06:39:48.401Z,82.27
2019-03-03T06:42:19.560Z,81.72
2019-03-03T06:44:51.304Z,80.89
2019-03-03T06:47:22.680Z,80.27
2019-03-03T06:49:53.894Z,79.84
2019-03-03T06:52:25.060Z,78.97
2019-03-03T06:54:56.299Z,78.63
2019-03-03T06:57:27.487Z,78.69
2019-03-03T06:59:58.748Z,78.58
2019-03-03T07:02:30.282Z,78.97
2019-03-03T07:05:01.469Z,78.90
2019-03-03T07:07:33.102Z,78.93
2019-03-03T07:10:04.818Z,78.54
2019-03-03T07:12:36.279Z,78.57
2019-03-03T07:15:09.859Z,78.21
2019-03-03T07:17:41.100Z,78.12
2019-03-03T07:20:13.003Z,78.64
2019-03-03T07:22:44.320Z,78.53
2019-03-03T07:25:15.701Z,78.36
2019-03-03T07:27:47.038Z,78.27
2019-03-03T07:30:18.425Z,77.70
2019-03-03T07:33:11.570Z,77.92
2019-03-03T07:35:43.285Z,76.87
2019-03-03T07:38:14.814Z,76.08
2019-03-03T07:40:46.115Z,76.02
2019-03-03T07:43:17.610Z,75.89
2019-03-03T07:45:49.001Z,75.08
2019-03-03T07:48:20.309Z,75.84
2019-03-03T07:50:51.619Z,75.38
2019-03-03T07:53:22.923Z,75.40
2019-03-03T07:55:54.979Z,75.36
2019-03-03T07:58:26.475Z,74.58
2019-03-03T08:00:57.792Z,74.74
2019-03-03T08:03:31.505Z,75.13
2019-03-03T08:06:03.524Z,73.56
2019-03-03T08:08:34.980Z,72.43
2019-03-03T08:11:06.889Z,71.03
2019-03-03T08:13:38.090Z,70.17
2019-03-03T08:16:10.895Z,69.81
2019-03-03T08:18:42.460Z,68.84
2019-03-03T08:21:13.838Z,67.36
2019-03-03T08:23:45.110Z,67.75
2019-03-03T08:26:16.454Z,67.52
2019-03-03T08:28:47.919Z,67.32
2019-03-03T08:31:19.233Z,67.23
2019-03-03T08:33:50.660Z,66.59
2019-03-03T08:36:22.488Z,65.61
2019-03-03T08:38:53.947Z,65.05
2019-03-03T08:41:25.270Z,63.50
2019-03-03T08:44:09.311Z,64.49
2019-03-03T08:46:58.258Z,61.98
2019-03-03T08:49:41.211Z,61.83
2019-03-03T08:52:21.173Z,62.32
2019-03-03T08:55:15.162Z,61.95
2019-03-03T08:58:11.276Z,58.92
2019-03-03T09:00:56.959Z,61.66
2019-03-03T09:03:43.601Z,59.65
2019-03-03T09:06:33.775Z,59.44
2019-03-03T09:09:25.159Z,60.25
2019-03-03T09:12:23.567Z,59.92
2019-03-03T09:15:16.990Z,60.19
2019-03-03T09:18:07.335Z,60.88
2019-03-03T09:21:00.864Z,59.37
2019-03-03T09:23:41.668Z,59.66
2019-03-03T09:26:34.893Z,58.32
2019-03-03T09:29:37.256Z,58.99
2019-03-03T09:32:26.318Z,60.75
2019-03-03T09:35:15.825Z,61.33
2019-03-03T09:38:05.080Z,60.97
2019-03-03T09:41:04.705Z,59.78
2019-03-03T09:44:04.614Z,59.47
2019-03-03T09:47:03.692Z,58.12
2019-03-03T09:50:11.925Z,57.19
2019-03-03T09:53:08.815Z,58.93
2019-03-03T09:55:57.817Z,61.08
2019-03-03T09:58:48.769Z,60.75
2019-03-03T10:01:28.185Z,60.68
2019-03-03T10:04:17.127Z,60.84
2019-03-03T10:07:01.390Z,60.18
2019-03-03T10:09:50.656Z,60.62
2019-03-03T10:12:46.962Z,60.10
2019-03-03T10:15:32.603Z,60.29
2019-03-03T10:18:25.884Z,60.38
2019-03-03T10:21:22.366Z,61.04
2019-03-03T10:24:01.710Z,61.07
2019-03-03T10:26:43.811Z,60.87
2019-03-03T10:29:40.571Z,60.10
2019-03-03T10:32:21.215Z,60.43
2019-03-03T10:35:02.096Z,59.75
2019-03-03T10:37:42.233Z,59.66
2019-03-03T10:40:44.604Z,60.03
2019-03-03T10:43:32.215Z,60.67
2019-03-03T10:46:21.499Z,60.06
2019-03-03T10:49:10.675Z,59.90
2019-03-03T10:51:50.628Z,60.78
2019-03-03T10:54:40.780Z,60.89
2019-03-03T10:57:24.251Z,60.31
2019-03-03T11:00:17.784Z,60.51
2019-03-03T11:03:14.217Z,60.77
2019-03-03T11:06:10.922Z,61.89
2019-03-03T11:09:08.546Z,62.04
2019-03-03T11:11:50.048Z,61.02
2019-03-03T11:14:52.701Z,61.36
2019-03-03T11:17:41.719Z,60.95
2019-03-03T11:20:31.019Z,59.45
2019-03-03T11:23:13.802Z,59.62
2019-03-03T11:26:07.096Z,58.98
2019-03-03T11:28:59.673Z,59.93
2019-03-03T11:31:52.779Z,59.13
2019-03-03T11:34:33.338Z,59.39
2019-03-03T11:37:23.762Z,59.78
2019-03-03T11:40:13.239Z,59.36
2019-03-03T11:42:59.729Z,60.09
2019-03-03T11:45:54.464Z,58.52
2019-03-03T11:48:33.751Z,58.22
2019-03-03T11:51:24.093Z,56.56
2019-03-03T11:54:01.889Z,56.14
2019-03-03T11:56:52.297Z,54.15
2019-03-03T11:59:41.166Z,53.48
2019-03-03T12:02:32.755Z,54.53
2019-03-03T12:05:23.139Z,54.76
2019-03-03T12:08:12.847Z,56.29
2019-03-03T12:11:15.229Z,56.14
2019-03-03T12:14:17.901Z,57.42
2019-03-03T12:17:06.351Z,58.31
2019-03-03T12:19:56.007Z,57.26
2019-03-03T12:22:49.512Z,58.03
2019-03-03T12:25:55.011Z,56.40
2019-03-03T12:28:47.764Z,57.17
2019-03-03T12:31:26.296Z,57.52
2019-03-03T12:34:07.273Z,57.52
2019-03-03T12:36:56.418Z,57.97
2019-03-03T12:39:51.148Z,58.84
2019-03-03T12:42:34.776Z,58.68
2019-03-03T12:45:40.516Z,58.91
2019-03-03T12:48:39.982Z,56.83
2019-03-03T12:51:30.166Z,54.79
2019-03-03T12:54:23.116Z,54.11
2019-03-03T12:57:02.484Z,54.87
2019-03-03T12:59:52.749Z,53.60
2019-03-03T13:02:52.076Z,53.66
2019-03-03T13:05:41.036Z,53.15
2019-03-03T13:08:21.226Z,51.68
2019-03-03T13:11:00.136Z,51.16
2019-03-03T13:13:45.923Z,51.90
2019-03-03T13:16:29.343Z,52.56
2019-03-03T13:19:28.772Z,51.43
2019-03-03T13:22:25.758Z,51.02
2019-03-03T13:25:21.883Z,50.52
2019-03-03T13:28:21.219Z,51.40
2019-03-03T13:31:21.052Z,51.10
2019-03-03T13:34:09.206Z,51.45
2019-03-03T13:36:47.302Z,51.32
2019-03-03T13:39:28.075Z,52.25
2019-03-03T13:42:42.215Z,51.34
2019-03-03T13:45:14.797Z,49.40
2019-03-03T13:47:46.225Z,50.81
2019-03-03T13:50:18.099Z,50.22
2019-03-03T13:52:49.777Z,52.37
2019-03-03T13:55:21.831Z,54.26
2019-03-03T13:57:53.299Z,54.08
2019-03-03T14:00:25.497Z,54.65
2019-03-03T14:02:56.936Z,55.12
2019-03-03T14:05:28.455Z,55.81
2019-03-03T14:08:00.250Z,56.33
2019-03-03T14:10:32.128Z,56.70
2019-03-03T14:13:03.745Z,56.75
2019-03-03T14:15:35.721Z,56.34
2019-03-03T14:18:07.212Z,56.57
2019-03-03T14:20:39.983Z,57.38
2019-03-03T14:23:11.394Z,57.28
2019-03-03T14:25:42.809Z,56.60
2019-03-03T14:28:14.331Z,57.41
2019-03-03T14:30:45.711Z,57.82
2019-03-03T14:33:17.355Z,57.84
2019-03-03T14:35:48.930Z,58.15
2019-03-03T14:38:20.838Z,57.84
2019-03-03T14:40:52.659Z,56.52
2019-03-03T14:43:24.588Z,57.45
2019-03-03T14:45:57.971Z,57.57
2019-03-03T14:48:29.702Z,57.48
2019-03-03T14:51:01.681Z,56.99
2019-03-03T14:53:33.443Z,57.46
2019-03-03T14:56:04.875Z,57.13
2019-03-03T14:58:36.342Z,58.07
2019-03-03T15:01:08.698Z,57.53
2019-03-03T15:03:40.414Z,57.45
2019-03-03T15:06:12.502Z,57.07
2019-03-03T15:08:44.124Z,57.19
2019-03-03T15:11:15.584Z,56.99
2019-03-03T15:13:47.288Z,57.16
2019-03-03T15:16:18.842Z,57.23
2019-03-03T15:18:50.467Z,57.13
2019-03-03T15:21:27.942Z,56.60
2019-03-03T15:24:00.688Z,55.99
2019-03-03T15:26:32.203Z,56.79
2019-03-03T15:29:04.011Z,54.25
2019-03-03T15:31:37.912Z,53.42
2019-03-03T15:34:09.905Z,52.65
2019-03-03T15:36:41.749Z,52.64
2019-03-03T15:39:13.627Z,53.02
2019-03-03T15:41:45.316Z,52.94
2019-03-03T15:44:16.662Z,54.52
2019-03-03T15:46:48.094Z,54.77
2019-03-03T15:49:19.525Z,55.40
2019-03-03T15:51:51.386Z,55.24
2019-03-03T15:54:22.764Z,55.58
2019-03-03T15:56:54.573Z,55.07
2019-03-03T15:59:26.049Z,55.04
2019-03-03T16:01:57.544Z,54.61
2019-03-03T16:04:28.971Z,54.88
2019-03-03T16:07:00.774Z,54.98
2019-03-03T16:09:32.008Z,55.86
2019-03-03T16:12:03.550Z,56.51
2019-03-03T16:14:35.349Z,57.00
2019-03-03T16:17:07.214Z,57.31
2019-03-03T16:19:38.658Z,57.05
2019-03-03T16:22:10.359Z,57.55
2019-03-03T16:24:41.875Z,57.75
2019-03-03T16:27:13.541Z,58.34
2019-03-03T16:29:44.876Z,58.16
2019-03-03T16:32:16.476Z,58.04
2019-03-03T16:34:48.079Z,58.82
2019-03-03T16:37:19.615Z,58.74
2019-03-03T16:39:50.949Z,58.92
2019-03-03T16:42:22.500Z,60.09
2019-03-03T16:44:54.142Z,60.59
2019-03-03T16:47:25.521Z,61.21
2019-03-03T16:49:57.187Z,62.24
2019-03-03T16:52:29.091Z,63.18
2019-03-03T16:55:00.648Z,63.88
2019-03-03T16:57:32.380Z,64.26
2019-03-03T17:00:04.600Z,64.66
2019-03-03T17:02:37.357Z,64.95
2019-03-03T17:05:09.832Z,65.79
2019-03-03T17:07:41.617Z,66.42
2019-03-03T17:10:13.965Z,66.90
2019-03-03T17:12:45.708Z,67.85
2019-03-03T17:15:19.792Z,68.20
2019-03-03T17:17:51.664Z,70.32
2019-03-03T17:20:23.131Z,69.96
2019-03-03T17:22:54.706Z,70.50
2019-03-03T17:25:26.220Z,70.08
2019-03-03T17:27:57.609Z,71.30
2019-03-03T17:30:29.175Z,71.83
2019-03-03T17:33:00.567Z,72.17
2019-03-03T17:35:32.051Z,71.88
2019-03-03T17:38:03.611Z,71.93
2019-03-03T17:40:35.705Z,71.93
2019-03-03T17:43:08.294Z,71.95
2019-03-03T17:45:40.324Z,72.25
2019-03-03T17:48:11.675Z,72.46
2019-03-03T17:50:43.077Z,72.61
2019-03-03T17:53:14.555Z,73.01
2019-03-03T17:55:46.297Z,73.99
2019-03-03T17:58:17.867Z,74.45
2019-03-03T18:00:49.649Z,75.01
2019-03-03T18:03:21.163Z,75.02
2019-03-03T18:05:52.659Z,75.08
2019-03-03T18:08:24.163Z,74.74
2019-03-03T18:10:56.102Z,76.01
2019-03-03T18:13:27.472Z,74.97
2019-03-03T18:15:58.862Z,75.17
2019-03-03T18:18:30.191Z,75.11
2019-03-03T18:21:01.864Z,75.45
2019-03-03T18:23:33.748Z,75.32
2019-03-03T18:26:05.518Z,75.48
2019-03-03T18:28:36.976Z,74.89
2019-03-03T18:31:08.427Z,74.57
2019-03-03T18:33:39.886Z,74.76
2019-03-03T18:36:11.722Z,74.63
2019-03-03T18:38:43.371Z,73.44
2019-03-03T18:41:15.321Z,73.95
2019-03-03T18:43:46.715Z,73.97
2019-03-03T18:46:18.184Z,73.40
2019-03-03T18:48:49.709Z,73.48
2019-03-03T18:51:21.211Z,73.37
2019-03-03T18:53:52.739Z,73.24
2019-03-03T18:56:24.291Z,73.52
2019-03-03T18:58:55.838Z,72.59
2019-03-03T19:01:27.378Z,71.67
2019-03-03T19:03:58.748Z,72.33
2019-03-03T19:06:30.163Z,72.60
2019-03-03T19:09:02.184Z,72.47
2019-03-03T19:11:35.236Z,72.13
2019-03-03T19:14:07.091Z,72.88
2019-03-03T19:16:38.616Z,72.48
2019-03-03T19:19:10.135Z,72.92
2019-03-03T19:21:41.819Z,72.96
2019-03-03T19:24:13.268Z,72.54
2019-03-03T19:26:44.746Z,71.12
2019-03-03T19:29:15.991Z,71.12
2019-03-03T19:31:47.894Z,70.96
2019-03-03T19:34:19.221Z,69.92
2019-03-03T19:36:50.956Z,70.58
2019-03-03T19:39:22.492Z,70.80
2019-03-03T19:41:54.167Z,70.58
2019-03-03T19:44:25.890Z,71.32
2019-03-03T19:46:57.440Z,71.99
2019-03-03T19:49:28.916Z,72.44
2019-03-03T19:52:00.519Z,73.21
2019-03-03T19:54:31.946Z,74.22
2019-03-03T19:57:03.780Z,74.52
2019-03-03T19:59:35.611Z,75.08
2019-03-03T20:02:07.544Z,75.53
2019-03-03T20:04:39.151Z,75.58
2019-03-03T20:07:10.699Z,76.51
2019-03-03T20:09:42.197Z,76.58
2019-03-03T20:12:13.865Z,76.99
2019-03-03T20:14:45.170Z,76.55
2019-03-03T20:17:16.977Z,77.32
2019-03-03T20:19:48.885Z,78.50
2019-03-03T20:22:20.286Z,78.75
2019-03-03T20:24:53.094Z,78.88
2019-03-03T20:27:25.900Z,79.17
2019-03-03T20:29:58.267Z,79.58
2019-03-03T20:32:30.185Z,80.11
2019-03-03T20:35:01.865Z,79.47
2019-03-03T20:37:34.244Z,79.54
2019-03-03T20:40:07.552Z,79.53
2019-03-03T20:42:39.101Z,79.72
2019-03-03T20:45:14.288Z,80.02
2019-03-03T20:47:45.765Z,80.08
2019-03-03T20:50:21.443Z,80.83
2019-03-03T20:52:53.722Z,81.05
2019-03-03T20:55:25.683Z,81.08
2019-03-03T20:57:57.695Z,81.60
2019-03-03T21:00:29.328Z,81.15
2019-03-03T21:03:01.035Z,80.50
2019-03-03T21:05:33.395Z,80.47
2019-03-03T21:08:04.878Z,80.00
2019-03-03T21:10:36.583Z,80.57
2019-03-03T21:13:08.102Z,80.22
2019-03-03T21:15:39.974Z,80.34
2019-03-03T21:18:11.329Z,80.25
2019-03-03T21:20:43.321Z,79.74
2019-03-03T21:23:15.295Z,80.59
2019-03-03T21:25:47.382Z,80.19
2019-03-03T21:28:18.907Z,79.69
2019-03-03T21:30:50.336Z,79.34
2019-03-03T21:33:21.736Z,79.81
2019-03-03T21:35:53.480Z,79.86
2019-03-03T21:38:25.859Z,79.70
2019-03-03T21:40:57.564Z,79.55
2019-03-03T21:43:28.931Z,79.60
2019-03-03T21:46:01.213Z,79.76
2019-03-03T21:48:33.273Z,79.95
2019-03-03T21:51:07.773Z,79.62
2019-03-03T21:53:39.600Z,79.99
2019-03-03T21:56:11.374Z,80.62
2019-03-03T21:58:42.942Z,80.39
2019-03-03T22:01:15.122Z,80.05
2019-03-03T22:03:47.054Z,79.73
2019-03-03T22:06:18.748Z,79.77
2019-03-03T22:08:50.338Z,79.88
2019-03-03T22:11:22.079Z,79.63
2019-03-03T22:13:53.778Z,79.91
2019-03-03T22:16:25.517Z,80.24
2019-03-03T22:18:56.969Z,80.64
2019-03-03T22:21:28.452Z,80.79
2019-03-03T22:23:59.863Z,80.54
2019-03-03T22:26:31.524Z,80.35
2019-03-03T22:29:03.008Z,80.38
2019-03-03T22:31:34.653Z,80.49
2019-03-03T22:34:06.180Z,80.37
2019-03-03T22:36:37.469Z,80.26
2019-03-03T22:39:09.512Z,79.59
2019-03-03T22:41:41.223Z,79.71
2019-03-03T22:44:13.118Z,79.52
2019-03-03T22:46:44.827Z,80.01
2019-03-03T22:49:16.237Z,79.54
2019-03-03T22:51:47.622Z,79.82
2019-03-03T22:54:20.000Z,79.89
2019-03-03T22:56:51.376Z,79.91
2019-03-03T22:59:22.986Z,80.01
2019-03-03T23:01:54.702Z,80.50
2019-03-03T23:04:56.628Z,80.46
2019-03-03T23:08:13.868Z,80.26
2019-03-03T23:11:31.811Z,79.74
2019-03-03T23:14:55.713Z,79.83
2019-03-03T23:18:42.291Z,79.37
2019-03-03T23:21:35.102Z,78.94
2019-03-03T23:25:37.410Z,79.44
2019-03-03T23:28:09.415Z,79.37
2019-03-03T23:30:41.085Z,79.69
2019-03-03T23:33:12.971Z,79.59
2019-03-03T23:35:44.665Z,80.07
2019-03-03T23:38:16.519Z,79.90
2019-03-03T23:40:48.561Z,79.59
2019-03-03T23:43:20.269Z,79.83
2019-03-03T23:45:52.192Z,79.39
2019-03-03T23:48:23.822Z,79.50
2019-03-03T23:50:55.021Z,79.32
2019-03-03T23:53:26.660Z,79.42
2019-03-03T23:55:59.098Z,79.27
2019-03-03T23:58:30.388Z,79.30
